sensor_id;sensor_type;location;lat;lon;timestamp;P1;durP1;ratioP1;P2;durP2;ratioP2
21777;SDS011;11050;52.222;20.916;2022-09-24T00:01:17;23.97;;;16.20;;
21777;SDS011;11050;52.222;20.916;2022-09-24T00:03:53;29.80;;;17.53;;
21777;SDS011;11050;52.222;20.916;2022-09-24T00:06:26;36.13;;;18.83;;
21777;SDS011;11050;52.222;20.916;2022-09-24T00:08:54;69.00;;;38.67;;
21777;SDS011;11050;52.222;20.916;2022-09-24T00:11:22;49.20;;;28.13;;
21777;SDS011;11050;52.222;20.916;2022-09-24T00:13:52;44.33;;;27.90;;
21777;SDS011;11050;52.222;20.916;2022-09-24T00:16:21;49.80;;;28.87;;
21777;SDS011;11050;52.222;20.916;2022-09-24T00:18:50;42.13;;;24.80;;
21777;SDS011;11050;52.222;20.916;2022-09-24T00:21:24;39.63;;;23.63;;
21777;SDS011;11050;52.222;20.916;2022-09-24T00:24:01;37.97;;;22.30;;
21777;SDS011;11050;52.222;20.916;2022-09-24T00:26:33;49.77;;;27.73;;
21777;SDS011;11050;52.222;20.916;2022-09-24T00:29:19;38.87;;;22.30;;
21777;SDS011;11050;52.222;20.916;2022-09-24T00:31:48;37.37;;;22.30;;
21777;SDS011;11050;52.222;20.916;2022-09-24T00:34:15;35.37;;;20.63;;
21777;SDS011;11050;52.222;20.916;2022-09-24T00:36:42;34.20;;;20.57;;
21777;SDS011;11050;52.222;20.916;2022-09-24T00:39:10;34.87;;;20.60;;
21777;SDS011;11050;52.222;20.916;2022-09-24T00:41:37;31.90;;;20.33;;
21777;SDS011;11050;52.222;20.916;2022-09-24T00:50:23;35.80;;;20.37;;
21777;SDS011;11050;52.222;20.916;2022-09-24T00:55:56;41.97;;;22.57;;
21777;SDS011;11050;52.222;20.916;2022-09-24T00:58:24;40.57;;;22.23;;
21777;SDS011;11050;52.222;20.916;2022-09-24T01:00:56;38.30;;;21.73;;
21777;SDS011;11050;52.222;20.916;2022-09-24T01:03:29;39.30;;;22.93;;
21777;SDS011;11050;52.222;20.916;2022-09-24T01:06:03;40.27;;;24.33;;
21777;SDS011;11050;52.222;20.916;2022-09-24T01:08:29;39.87;;;23.97;;
21777;SDS011;11050;52.222;20.916;2022-09-24T01:11:18;40.47;;;23.40;;
21777;SDS011;11050;52.222;20.916;2022-09-24T01:14:22;44.20;;;23.53;;
21777;SDS011;11050;52.222;20.916;2022-09-24T01:27:02;39.67;;;22.17;;
21777;SDS011;11050;52.222;20.916;2022-09-24T01:32:52;37.43;;;22.93;;
21777;SDS011;11050;52.222;20.916;2022-09-24T01:38:31;37.40;;;22.57;;
21777;SDS011;11050;52.222;20.916;2022-09-24T01:41:11;35.13;;;21.87;;
21777;SDS011;11050;52.222;20.916;2022-09-24T01:43:41;38.17;;;21.97;;
21777;SDS011;11050;52.222;20.916;2022-09-24T01:46:08;41.00;;;23.47;;
21777;SDS011;11050;52.222;20.916;2022-09-24T01:48:37;37.63;;;23.10;;
21777;SDS011;11050;52.222;20.916;2022-09-24T01:51:07;45.80;;;24.33;;
21777;SDS011;11050;52.222;20.916;2022-09-24T01:54:24;40.83;;;23.73;;
21777;SDS011;11050;52.222;20.916;2022-09-24T01:56:54;36.20;;;21.77;;
21777;SDS011;11050;52.222;20.916;2022-09-24T02:02:28;41.90;;;23.73;;
21777;SDS011;11050;52.222;20.916;2022-09-24T02:10:37;35.60;;;21.83;;
21777;SDS011;11050;52.222;20.916;2022-09-24T02:13:14;38.77;;;23.53;;
21777;SDS011;11050;52.222;20.916;2022-09-24T02:15:45;43.43;;;23.87;;
21777;SDS011;11050;52.222;20.916;2022-09-24T02:18:17;42.67;;;24.53;;
21777;SDS011;11050;52.222;20.916;2022-09-24T02:20:52;32.70;;;22.07;;
21777;SDS011;11050;52.222;20.916;2022-09-24T02:23:21;39.57;;;23.60;;
21777;SDS011;11050;52.222;20.916;2022-09-24T02:25:55;44.00;;;24.00;;
21777;SDS011;11050;52.222;20.916;2022-09-24T02:28:26;39.27;;;22.37;;
21777;SDS011;11050;52.222;20.916;2022-09-24T02:30:54;40.77;;;23.87;;
21777;SDS011;11050;52.222;20.916;2022-09-24T02:33:34;39.83;;;23.40;;
21777;SDS011;11050;52.222;20.916;2022-09-24T02:36:24;38.80;;;22.10;;
21777;SDS011;11050;52.222;20.916;2022-09-24T02:38:51;41.07;;;23.43;;
21777;SDS011;11050;52.222;20.916;2022-09-24T02:41:17;37.53;;;22.67;;
21777;SDS011;11050;52.222;20.916;2022-09-24T02:43:48;41.13;;;23.87;;
21777;SDS011;11050;52.222;20.916;2022-09-24T02:46:15;42.27;;;24.47;;
21777;SDS011;11050;52.222;20.916;2022-09-24T02:48:40;37.63;;;23.40;;
21777;SDS011;11050;52.222;20.916;2022-09-24T02:51:06;38.77;;;22.77;;
21777;SDS011;11050;52.222;20.916;2022-09-24T02:53:32;40.17;;;22.70;;
21777;SDS011;11050;52.222;20.916;2022-09-24T02:55:58;38.53;;;22.07;;
21777;SDS011;11050;52.222;20.916;2022-09-24T02:58:28;39.60;;;23.33;;
21777;SDS011;11050;52.222;20.916;2022-09-24T03:00:55;37.13;;;22.77;;
21777;SDS011;11050;52.222;20.916;2022-09-24T03:03:22;40.87;;;23.83;;
21777;SDS011;11050;52.222;20.916;2022-09-24T03:05:49;41.37;;;22.13;;
21777;SDS011;11050;52.222;20.916;2022-09-24T03:08:17;34.80;;;21.83;;
21777;SDS011;11050;52.222;20.916;2022-09-24T03:10:44;39.60;;;22.43;;
21777;SDS011;11050;52.222;20.916;2022-09-24T03:13:10;38.37;;;22.63;;
21777;SDS011;11050;52.222;20.916;2022-09-24T03:15:37;40.50;;;22.60;;
21777;SDS011;11050;52.222;20.916;2022-09-24T03:18:03;38.77;;;22.57;;
21777;SDS011;11050;52.222;20.916;2022-09-24T03:20:29;37.97;;;23.10;;
21777;SDS011;11050;52.222;20.916;2022-09-24T03:22:56;37.80;;;22.20;;
21777;SDS011;11050;52.222;20.916;2022-09-24T03:25:21;40.57;;;22.50;;
21777;SDS011;11050;52.222;20.916;2022-09-24T03:27:48;37.67;;;21.83;;
21777;SDS011;11050;52.222;20.916;2022-09-24T03:30:14;43.03;;;22.00;;
21777;SDS011;11050;52.222;20.916;2022-09-24T03:32:58;35.23;;;21.00;;
21777;SDS011;11050;52.222;20.916;2022-09-24T03:35:24;39.70;;;21.13;;
21777;SDS011;11050;52.222;20.916;2022-09-24T03:37:50;38.00;;;21.30;;
21777;SDS011;11050;52.222;20.916;2022-09-24T03:40:16;43.27;;;21.77;;
21777;SDS011;11050;52.222;20.916;2022-09-24T03:42:42;35.57;;;20.80;;
21777;SDS011;11050;52.222;20.916;2022-09-24T03:45:08;39.00;;;21.90;;
21777;SDS011;11050;52.222;20.916;2022-09-24T03:47:34;36.43;;;21.43;;
21777;SDS011;11050;52.222;20.916;2022-09-24T03:50:01;39.00;;;21.53;;
21777;SDS011;11050;52.222;20.916;2022-09-24T03:52:27;39.93;;;23.13;;
21777;SDS011;11050;52.222;20.916;2022-09-24T03:54:53;37.67;;;21.73;;
21777;SDS011;11050;52.222;20.916;2022-09-24T03:57:20;35.20;;;21.10;;
21777;SDS011;11050;52.222;20.916;2022-09-24T03:59:46;32.83;;;20.60;;
21777;SDS011;11050;52.222;20.916;2022-09-24T04:02:12;36.33;;;19.93;;
21777;SDS011;11050;52.222;20.916;2022-09-24T04:04:38;37.33;;;22.43;;
21777;SDS011;11050;52.222;20.916;2022-09-24T04:07:04;39.60;;;23.23;;
21777;SDS011;11050;52.222;20.916;2022-09-24T04:09:30;39.03;;;22.23;;
21777;SDS011;11050;52.222;20.916;2022-09-24T04:11:56;37.97;;;21.77;;
21777;SDS011;11050;52.222;20.916;2022-09-24T04:14:23;37.40;;;22.40;;
21777;SDS011;11050;52.222;20.916;2022-09-24T04:16:49;39.80;;;23.43;;
21777;SDS011;11050;52.222;20.916;2022-09-24T04:19:15;44.60;;;23.67;;
21777;SDS011;11050;52.222;20.916;2022-09-24T04:21:41;42.40;;;24.73;;
21777;SDS011;11050;52.222;20.916;2022-09-24T04:24:07;44.87;;;23.63;;
21777;SDS011;11050;52.222;20.916;2022-09-24T04:26:33;40.93;;;24.57;;
21777;SDS011;11050;52.222;20.916;2022-09-24T04:28:59;41.70;;;25.77;;
21777;SDS011;11050;52.222;20.916;2022-09-24T04:31:26;49.37;;;27.80;;
21777;SDS011;11050;52.222;20.916;2022-09-24T04:33:52;42.07;;;25.03;;
21777;SDS011;11050;52.222;20.916;2022-09-24T04:36:19;40.07;;;23.20;;
21777;SDS011;11050;52.222;20.916;2022-09-24T04:38:45;37.50;;;22.93;;
21777;SDS011;11050;52.222;20.916;2022-09-24T04:41:11;39.70;;;22.90;;
21777;SDS011;11050;52.222;20.916;2022-09-24T04:43:39;34.10;;;22.43;;
21777;SDS011;11050;52.222;20.916;2022-09-24T04:46:05;34.33;;;20.57;;
21777;SDS011;11050;52.222;20.916;2022-09-24T04:48:33;36.37;;;22.63;;
21777;SDS011;11050;52.222;20.916;2022-09-24T04:51:02;34.00;;;22.17;;
21777;SDS011;11050;52.222;20.916;2022-09-24T04:53:31;44.70;;;24.20;;
21777;SDS011;11050;52.222;20.916;2022-09-24T04:56:01;49.53;;;28.07;;
21777;SDS011;11050;52.222;20.916;2022-09-24T04:58:29;44.17;;;25.70;;
21777;SDS011;11050;52.222;20.916;2022-09-24T05:00:55;39.97;;;23.90;;
21777;SDS011;11050;52.222;20.916;2022-09-24T05:03:21;36.13;;;21.77;;
21777;SDS011;11050;52.222;20.916;2022-09-24T05:05:47;36.17;;;21.93;;
21777;SDS011;11050;52.222;20.916;2022-09-24T05:08:16;41.37;;;22.40;;
21777;SDS011;11050;52.222;20.916;2022-09-24T05:10:42;36.07;;;21.07;;
21777;SDS011;11050;52.222;20.916;2022-09-24T05:13:08;36.70;;;21.87;;
21777;SDS011;11050;52.222;20.916;2022-09-24T05:15:34;51.00;;;27.80;;
21777;SDS011;11050;52.222;20.916;2022-09-24T05:18:00;45.37;;;25.43;;
21777;SDS011;11050;52.222;20.916;2022-09-24T05:20:26;45.67;;;25.33;;
21777;SDS011;11050;52.222;20.916;2022-09-24T05:22:52;43.50;;;24.67;;
21777;SDS011;11050;52.222;20.916;2022-09-24T05:25:18;40.67;;;23.90;;
21777;SDS011;11050;52.222;20.916;2022-09-24T05:27:47;32.10;;;20.23;;
21777;SDS011;11050;52.222;20.916;2022-09-24T05:30:15;29.70;;;17.93;;
21777;SDS011;11050;52.222;20.916;2022-09-24T05:32:43;28.40;;;17.47;;
21777;SDS011;11050;52.222;20.916;2022-09-24T05:35:09;35.77;;;21.10;;
21777;SDS011;11050;52.222;20.916;2022-09-24T05:37:35;36.43;;;21.87;;
21777;SDS011;11050;52.222;20.916;2022-09-24T05:40:02;34.60;;;19.83;;
21777;SDS011;11050;52.222;20.916;2022-09-24T05:42:49;30.00;;;18.90;;
21777;SDS011;11050;52.222;20.916;2022-09-24T05:45:16;30.77;;;19.13;;
21777;SDS011;11050;52.222;20.916;2022-09-24T05:47:45;26.33;;;17.07;;
21777;SDS011;11050;52.222;20.916;2022-09-24T05:50:14;26.83;;;17.57;;
21777;SDS011;11050;52.222;20.916;2022-09-24T05:52:40;29.50;;;18.03;;
21777;SDS011;11050;52.222;20.916;2022-09-24T05:55:07;27.17;;;16.13;;
21777;SDS011;11050;52.222;20.916;2022-09-24T05:57:34;24.50;;;15.93;;
21777;SDS011;11050;52.222;20.916;2022-09-24T06:00:01;24.90;;;16.20;;
21777;SDS011;11050;52.222;20.916;2022-09-24T06:02:28;20.63;;;14.97;;
21777;SDS011;11050;52.222;20.916;2022-09-24T06:04:54;23.70;;;15.03;;
21777;SDS011;11050;52.222;20.916;2022-09-24T06:07:20;24.03;;;16.20;;
21777;SDS011;11050;52.222;20.916;2022-09-24T06:09:45;21.97;;;15.67;;
21777;SDS011;11050;52.222;20.916;2022-09-24T06:12:12;26.37;;;16.03;;
21777;SDS011;11050;52.222;20.916;2022-09-24T06:14:38;25.10;;;15.60;;
21777;SDS011;11050;52.222;20.916;2022-09-24T06:17:06;23.23;;;15.33;;
21777;SDS011;11050;52.222;20.916;2022-09-24T06:19:33;21.53;;;15.17;;
21777;SDS011;11050;52.222;20.916;2022-09-24T06:21:58;20.87;;;14.83;;
21777;SDS011;11050;52.222;20.916;2022-09-24T06:24:24;23.73;;;15.73;;
21777;SDS011;11050;52.222;20.916;2022-09-24T06:26:50;26.20;;;15.27;;
21777;SDS011;11050;52.222;20.916;2022-09-24T06:29:16;22.73;;;14.87;;
21777;SDS011;11050;52.222;20.916;2022-09-24T06:31:42;21.37;;;14.83;;
21777;SDS011;11050;52.222;20.916;2022-09-24T06:34:09;22.40;;;15.70;;
21777;SDS011;11050;52.222;20.916;2022-09-24T06:36:35;24.70;;;14.27;;
21777;SDS011;11050;52.222;20.916;2022-09-24T06:39:01;21.87;;;14.60;;
21777;SDS011;11050;52.222;20.916;2022-09-24T06:41:27;22.80;;;15.17;;
21777;SDS011;11050;52.222;20.916;2022-09-24T06:43:53;27.57;;;16.13;;
21777;SDS011;11050;52.222;20.916;2022-09-24T06:46:20;26.27;;;14.97;;
21777;SDS011;11050;52.222;20.916;2022-09-24T06:48:49;31.30;;;15.97;;
21777;SDS011;11050;52.222;20.916;2022-09-24T06:51:18;43.23;;;16.83;;
21777;SDS011;11050;52.222;20.916;2022-09-24T06:53:45;30.90;;;14.80;;
21777;SDS011;11050;52.222;20.916;2022-09-24T06:56:10;26.50;;;13.93;;
21777;SDS011;11050;52.222;20.916;2022-09-24T06:58:36;29.00;;;15.93;;
21777;SDS011;11050;52.222;20.916;2022-09-24T07:01:02;25.88;;;13.90;;
21777;SDS011;11050;52.222;20.916;2022-09-24T07:03:30;26.85;;;15.00;;
21777;SDS011;11050;52.222;20.916;2022-09-24T07:06:04;27.10;;;15.30;;
21777;SDS011;11050;52.222;20.916;2022-09-24T07:08:31;22.27;;;14.45;;
21777;SDS011;11050;52.222;20.916;2022-09-24T07:10:58;24.60;;;14.25;;
21777;SDS011;11050;52.222;20.916;2022-09-24T07:13:24;26.83;;;14.27;;
21777;SDS011;11050;52.222;20.916;2022-09-24T07:15:51;26.55;;;14.15;;
21777;SDS011;11050;52.222;20.916;2022-09-24T07:18:17;23.98;;;14.13;;
21777;SDS011;11050;52.222;20.916;2022-09-24T07:20:49;25.05;;;15.25;;
21777;SDS011;11050;52.222;20.916;2022-09-24T07:23:20;23.25;;;14.77;;
21777;SDS011;11050;52.222;20.916;2022-09-24T07:25:47;30.50;;;14.85;;
21777;SDS011;11050;52.222;20.916;2022-09-24T07:28:19;33.22;;;16.55;;
21777;SDS011;11050;52.222;20.916;2022-09-24T07:30:44;25.27;;;15.05;;
21777;SDS011;11050;52.222;20.916;2022-09-24T07:33:10;37.30;;;15.73;;
21777;SDS011;11050;52.222;20.916;2022-09-24T07:35:37;37.05;;;15.40;;
21777;SDS011;11050;52.222;20.916;2022-09-24T07:38:05;25.13;;;13.95;;
21777;SDS011;11050;52.222;20.916;2022-09-24T07:40:36;24.77;;;13.82;;
21777;SDS011;11050;52.222;20.916;2022-09-24T07:43:02;26.95;;;13.45;;
21777;SDS011;11050;52.222;20.916;2022-09-24T07:45:28;25.38;;;14.20;;
21777;SDS011;11050;52.222;20.916;2022-09-24T07:47:59;19.58;;;12.60;;
21777;SDS011;11050;52.222;20.916;2022-09-24T07:50:27;20.40;;;11.88;;
21777;SDS011;11050;52.222;20.916;2022-09-24T07:52:56;15.63;;;10.35;;
21777;SDS011;11050;52.222;20.916;2022-09-24T07:55:22;12.77;;;9.75;;
21777;SDS011;11050;52.222;20.916;2022-09-24T07:57:50;12.32;;;8.68;;
21777;SDS011;11050;52.222;20.916;2022-09-24T08:00:19;11.32;;;7.68;;
21777;SDS011;11050;52.222;20.916;2022-09-24T08:02:47;10.35;;;6.50;;
21777;SDS011;11050;52.222;20.916;2022-09-24T08:05:13;10.75;;;7.07;;
21777;SDS011;11050;52.222;20.916;2022-09-24T08:07:42;12.02;;;6.65;;
21777;SDS011;11050;52.222;20.916;2022-09-24T08:10:18;11.63;;;7.63;;
21777;SDS011;11050;52.222;20.916;2022-09-24T08:12:45;9.23;;;6.43;;
21777;SDS011;11050;52.222;20.916;2022-09-24T08:15:10;10.40;;;6.80;;
21777;SDS011;11050;52.222;20.916;2022-09-24T08:17:37;12.70;;;7.10;;
21777;SDS011;11050;52.222;20.916;2022-09-24T08:20:03;10.70;;;7.20;;
21777;SDS011;11050;52.222;20.916;2022-09-24T08:22:29;11.82;;;7.63;;
21777;SDS011;11050;52.222;20.916;2022-09-24T08:24:55;9.00;;;6.22;;
21777;SDS011;11050;52.222;20.916;2022-09-24T08:27:21;7.38;;;6.28;;
21777;SDS011;11050;52.222;20.916;2022-09-24T08:29:49;6.15;;;5.03;;
21777;SDS011;11050;52.222;20.916;2022-09-24T08:32:16;6.47;;;4.53;;
21777;SDS011;11050;52.222;20.916;2022-09-24T08:34:42;5.82;;;4.05;;
21777;SDS011;11050;52.222;20.916;2022-09-24T08:37:09;6.45;;;4.80;;
21777;SDS011;11050;52.222;20.916;2022-09-24T08:39:37;5.20;;;4.57;;
21777;SDS011;11050;52.222;20.916;2022-09-24T08:42:04;7.28;;;5.40;;
21777;SDS011;11050;52.222;20.916;2022-09-24T08:50:12;8.45;;;5.78;;
21777;SDS011;11050;52.222;20.916;2022-09-24T08:55:48;4.85;;;4.15;;
21777;SDS011;11050;52.222;20.916;2022-09-24T08:58:30;10.80;;;6.70;;
21777;SDS011;11050;52.222;20.916;2022-09-24T09:03:45;5.15;;;4.50;;
21777;SDS011;11050;52.222;20.916;2022-09-24T09:09:55;3.58;;;3.17;;
21777;SDS011;11050;52.222;20.916;2022-09-24T09:12:36;5.10;;;4.20;;
21777;SDS011;11050;52.222;20.916;2022-09-24T09:15:15;8.10;;;5.72;;
21777;SDS011;11050;52.222;20.916;2022-09-24T09:17:48;4.65;;;3.15;;
21777;SDS011;11050;52.222;20.916;2022-09-24T09:20:27;4.78;;;2.65;;
21777;SDS011;11050;52.222;20.916;2022-09-24T09:23:38;6.38;;;3.95;;
21777;SDS011;11050;52.222;20.916;2022-09-24T09:26:14;3.40;;;2.58;;
21777;SDS011;11050;52.222;20.916;2022-09-24T09:28:43;4.82;;;3.55;;
21777;SDS011;11050;52.222;20.916;2022-09-24T09:34:32;4.35;;;2.50;;
21777;SDS011;11050;52.222;20.916;2022-09-24T09:37:53;5.50;;;2.80;;
21777;SDS011;11050;52.222;20.916;2022-09-24T09:43:18;3.50;;;2.97;;
21777;SDS011;11050;52.222;20.916;2022-09-24T09:49:00;3.65;;;3.10;;
21777;SDS011;11050;52.222;20.916;2022-09-24T09:51:30;3.83;;;3.00;;
21777;SDS011;11050;52.222;20.916;2022-09-24T09:54:03;5.22;;;3.10;;
21777;SDS011;11050;52.222;20.916;2022-09-24T09:56:32;4.22;;;3.30;;
21777;SDS011;11050;52.222;20.916;2022-09-24T10:01:40;5.15;;;3.58;;
21777;SDS011;11050;52.222;20.916;2022-09-24T10:04:40;3.70;;;3.20;;
21777;SDS011;11050;52.222;20.916;2022-09-24T10:07:15;3.92;;;3.30;;
21777;SDS011;11050;52.222;20.916;2022-09-24T10:09:42;6.28;;;3.92;;
21777;SDS011;11050;52.222;20.916;2022-09-24T10:12:19;6.45;;;3.80;;
21777;SDS011;11050;52.222;20.916;2022-09-24T10:17:30;6.18;;;4.20;;
21777;SDS011;11050;52.222;20.916;2022-09-24T10:20:06;6.35;;;4.35;;
21777;SDS011;11050;52.222;20.916;2022-09-24T10:23:02;5.72;;;4.00;;
21777;SDS011;11050;52.222;20.916;2022-09-24T10:25:39;5.80;;;4.28;;
21777;SDS011;11050;52.222;20.916;2022-09-24T10:28:15;5.05;;;4.28;;
21777;SDS011;11050;52.222;20.916;2022-09-24T10:31:10;4.70;;;4.15;;
21777;SDS011;11050;52.222;20.916;2022-09-24T10:33:41;6.22;;;4.53;;
21777;SDS011;11050;52.222;20.916;2022-09-24T10:36:24;7.28;;;3.90;;
21777;SDS011;11050;52.222;20.916;2022-09-24T10:41:37;4.88;;;3.70;;
21777;SDS011;11050;52.222;20.916;2022-09-24T10:44:15;4.53;;;3.05;;
21777;SDS011;11050;52.222;20.916;2022-09-24T10:49:50;4.05;;;2.60;;
21777;SDS011;11050;52.222;20.916;2022-09-24T10:55:20;4.60;;;2.50;;
21777;SDS011;11050;52.222;20.916;2022-09-24T11:10:17;3.55;;;2.30;;
21777;SDS011;11050;52.222;20.916;2022-09-24T11:16:03;2.40;;;2.20;;
21777;SDS011;11050;52.222;20.916;2022-09-24T11:18:58;2.42;;;1.67;;
21777;SDS011;11050;52.222;20.916;2022-09-24T11:30:19;4.00;;;1.73;;
21777;SDS011;11050;52.222;20.916;2022-09-24T11:56:32;1.98;;;1.38;;
21777;SDS011;11050;52.222;20.916;2022-09-24T11:59:16;1.35;;;1.20;;
21777;SDS011;11050;52.222;20.916;2022-09-24T12:07:43;2.13;;;1.80;;
21777;SDS011;11050;52.222;20.916;2022-09-24T12:10:21;1.80;;;1.60;;
21777;SDS011;11050;52.222;20.916;2022-09-24T12:13:14;1.90;;;1.00;;
21777;SDS011;11050;52.222;20.916;2022-09-24T12:15:51;1.40;;;1.30;;
21777;SDS011;11050;52.222;20.916;2022-09-24T12:18:23;1.50;;;1.27;;
21777;SDS011;11050;52.222;20.916;2022-09-24T12:23:33;1.73;;;1.40;;
21777;SDS011;11050;52.222;20.916;2022-09-24T12:26:06;3.38;;;1.60;;
21777;SDS011;11050;52.222;20.916;2022-09-24T12:31:54;2.63;;;1.70;;
21777;SDS011;11050;52.222;20.916;2022-09-24T12:35:18;4.72;;;2.10;;
21777;SDS011;11050;52.222;20.916;2022-09-24T12:44:10;2.65;;;1.88;;
21777;SDS011;11050;52.222;20.916;2022-09-24T12:46:40;3.22;;;2.08;;
21777;SDS011;11050;52.222;20.916;2022-09-24T12:51:52;2.33;;;1.90;;
21777;SDS011;11050;52.222;20.916;2022-09-24T13:05:59;2.22;;;1.92;;
21777;SDS011;11050;52.222;20.916;2022-09-24T13:08:36;2.78;;;2.53;;
21777;SDS011;11050;52.222;20.916;2022-09-24T13:11:21;6.28;;;2.10;;
21777;SDS011;11050;52.222;20.916;2022-09-24T13:14:07;3.88;;;2.03;;
21777;SDS011;11050;52.222;20.916;2022-09-24T13:16:47;3.38;;;2.20;;
21777;SDS011;11050;52.222;20.916;2022-09-24T13:19:20;4.18;;;2.47;;
21777;SDS011;11050;52.222;20.916;2022-09-24T13:21:58;4.35;;;2.58;;
21777;SDS011;11050;52.222;20.916;2022-09-24T13:24:33;3.67;;;2.47;;
21777;SDS011;11050;52.222;20.916;2022-09-24T13:29:59;3.65;;;2.47;;
21777;SDS011;11050;52.222;20.916;2022-09-24T13:32:53;4.13;;;2.08;;
21777;SDS011;11050;52.222;20.916;2022-09-24T13:35:26;3.40;;;2.58;;
21777;SDS011;11050;52.222;20.916;2022-09-24T13:40:56;4.47;;;2.28;;
21777;SDS011;11050;52.222;20.916;2022-09-24T13:43:50;3.78;;;2.47;;
21777;SDS011;11050;52.222;20.916;2022-09-24T13:46:28;2.70;;;2.22;;
21777;SDS011;11050;52.222;20.916;2022-09-24T13:49:00;7.50;;;4.18;;
21777;SDS011;11050;52.222;20.916;2022-09-24T13:51:35;5.15;;;3.42;;
21777;SDS011;11050;52.222;20.916;2022-09-24T13:56:54;3.50;;;2.13;;
21777;SDS011;11050;52.222;20.916;2022-09-24T13:59:43;3.45;;;2.55;;
21777;SDS011;11050;52.222;20.916;2022-09-24T14:02:20;3.35;;;2.42;;
21777;SDS011;11050;52.222;20.916;2022-09-24T14:04:55;4.57;;;2.50;;
21777;SDS011;11050;52.222;20.916;2022-09-24T14:07:24;4.63;;;2.53;;
21777;SDS011;11050;52.222;20.916;2022-09-24T14:13:00;4.55;;;2.47;;
21777;SDS011;11050;52.222;20.916;2022-09-24T14:16:06;3.90;;;2.65;;
21777;SDS011;11050;52.222;20.916;2022-09-24T14:18:35;3.97;;;2.65;;
21777;SDS011;11050;52.222;20.916;2022-09-24T14:21:03;4.75;;;2.78;;
21777;SDS011;11050;52.222;20.916;2022-09-24T14:23:54;4.32;;;3.17;;
21777;SDS011;11050;52.222;20.916;2022-09-24T14:26:41;4.95;;;2.78;;
21777;SDS011;11050;52.222;20.916;2022-09-24T14:29:16;3.60;;;2.50;;
21777;SDS011;11050;52.222;20.916;2022-09-24T14:31:52;4.65;;;2.97;;
21777;SDS011;11050;52.222;20.916;2022-09-24T14:34:33;5.35;;;3.00;;
21777;SDS011;11050;52.222;20.916;2022-09-24T14:37:16;4.10;;;2.78;;
21777;SDS011;11050;52.222;20.916;2022-09-24T14:39:50;4.35;;;2.97;;
21777;SDS011;11050;52.222;20.916;2022-09-24T14:45:05;7.47;;;2.78;;
21777;SDS011;11050;52.222;20.916;2022-09-24T14:47:35;3.58;;;2.28;;
21777;SDS011;11050;52.222;20.916;2022-09-24T14:50:01;4.40;;;2.10;;
21777;SDS011;11050;52.222;20.916;2022-09-24T14:52:30;2.50;;;1.95;;
21777;SDS011;11050;52.222;20.916;2022-09-24T14:55:17;3.60;;;2.53;;
21777;SDS011;11050;52.222;20.916;2022-09-24T14:57:48;9.82;;;2.50;;
21777;SDS011;11050;52.222;20.916;2022-09-24T15:00:25;3.95;;;2.55;;
21777;SDS011;11050;52.222;20.916;2022-09-24T15:02:57;4.80;;;2.13;;
21777;SDS011;11050;52.222;20.916;2022-09-24T15:05:51;2.85;;;2.35;;
21777;SDS011;11050;52.222;20.916;2022-09-24T15:10:57;3.90;;;3.20;;
21777;SDS011;11050;52.222;20.916;2022-09-24T15:13:34;4.25;;;2.88;;
21777;SDS011;11050;52.222;20.916;2022-09-24T15:19:15;3.20;;;2.60;;
21777;SDS011;11050;52.222;20.916;2022-09-24T15:21:54;3.47;;;3.03;;
21777;SDS011;11050;52.222;20.916;2022-09-24T15:24:22;4.82;;;3.50;;
21777;SDS011;11050;52.222;20.916;2022-09-24T15:27:49;2.83;;;2.20;;
21777;SDS011;11050;52.222;20.916;2022-09-24T15:29:56;4.13;;;2.50;;
21777;SDS011;11050;52.222;20.916;2022-09-24T15:32:28;3.58;;;2.78;;
21777;SDS011;11050;52.222;20.916;2022-09-24T15:34:57;3.50;;;2.55;;
21777;SDS011;11050;52.222;20.916;2022-09-24T15:37:24;3.15;;;2.45;;
21777;SDS011;11050;52.222;20.916;2022-09-24T15:39:53;3.25;;;2.50;;
21777;SDS011;11050;52.222;20.916;2022-09-24T15:42:26;3.05;;;2.65;;
21777;SDS011;11050;52.222;20.916;2022-09-24T15:44:52;4.07;;;2.70;;
21777;SDS011;11050;52.222;20.916;2022-09-24T15:47:18;4.88;;;3.30;;
21777;SDS011;11050;52.222;20.916;2022-09-24T15:49:45;4.10;;;2.35;;
21777;SDS011;11050;52.222;20.916;2022-09-24T15:52:13;3.70;;;2.72;;
21777;SDS011;11050;52.222;20.916;2022-09-24T15:54:52;3.72;;;2.60;;
21777;SDS011;11050;52.222;20.916;2022-09-24T15:57:22;4.40;;;2.63;;
21777;SDS011;11050;52.222;20.916;2022-09-24T15:59:50;5.85;;;3.30;;
21777;SDS011;11050;52.222;20.916;2022-09-24T16:02:24;5.70;;;3.90;;
21777;SDS011;11050;52.222;20.916;2022-09-24T16:04:57;5.03;;;3.50;;
21777;SDS011;11050;52.222;20.916;2022-09-24T16:07:24;6.97;;;4.55;;
21777;SDS011;11050;52.222;20.916;2022-09-24T16:09:50;8.85;;;4.95;;
21777;SDS011;11050;52.222;20.916;2022-09-24T16:12:16;10.20;;;4.72;;
21777;SDS011;11050;52.222;20.916;2022-09-24T16:14:44;10.23;;;4.72;;
21777;SDS011;11050;52.222;20.916;2022-09-24T16:17:10;36.38;;;13.88;;
21777;SDS011;11050;52.222;20.916;2022-09-24T16:19:36;38.10;;;15.23;;
21777;SDS011;11050;52.222;20.916;2022-09-24T16:22:03;29.33;;;12.23;;
21777;SDS011;11050;52.222;20.916;2022-09-24T16:24:32;28.63;;;12.05;;
21777;SDS011;11050;52.222;20.916;2022-09-24T16:26:59;20.65;;;8.02;;
21777;SDS011;11050;52.222;20.916;2022-09-24T16:29:25;18.35;;;7.40;;
21777;SDS011;11050;52.222;20.916;2022-09-24T16:31:51;14.80;;;7.03;;
21777;SDS011;11050;52.222;20.916;2022-09-24T16:34:17;10.77;;;5.00;;
21777;SDS011;11050;52.222;20.916;2022-09-24T16:36:43;10.65;;;5.53;;
21777;SDS011;11050;52.222;20.916;2022-09-24T16:39:09;16.45;;;6.72;;
21777;SDS011;11050;52.222;20.916;2022-09-24T16:41:35;15.02;;;7.35;;
21777;SDS011;11050;52.222;20.916;2022-09-24T16:44:02;15.07;;;6.55;;
21777;SDS011;11050;52.222;20.916;2022-09-24T16:46:29;10.30;;;5.15;;
21777;SDS011;11050;52.222;20.916;2022-09-24T16:48:55;10.10;;;5.10;;
21777;SDS011;11050;52.222;20.916;2022-09-24T16:51:21;13.18;;;5.00;;
21777;SDS011;11050;52.222;20.916;2022-09-24T16:53:51;11.98;;;5.20;;
21777;SDS011;11050;52.222;20.916;2022-09-24T16:56:21;8.10;;;4.80;;
21777;SDS011;11050;52.222;20.916;2022-09-24T16:58:47;14.00;;;5.05;;
21777;SDS011;11050;52.222;20.916;2022-09-24T17:01:14;9.68;;;4.47;;
21777;SDS011;11050;52.222;20.916;2022-09-24T17:03:43;8.68;;;4.43;;
21777;SDS011;11050;52.222;20.916;2022-09-24T17:06:19;8.02;;;4.53;;
21777;SDS011;11050;52.222;20.916;2022-09-24T17:08:47;6.40;;;4.13;;
21777;SDS011;11050;52.222;20.916;2022-09-24T17:11:32;13.68;;;4.80;;
21777;SDS011;11050;52.222;20.916;2022-09-24T17:13:59;12.18;;;4.75;;
21777;SDS011;11050;52.222;20.916;2022-09-24T17:16:25;9.23;;;4.60;;
21777;SDS011;11050;52.222;20.916;2022-09-24T17:18:53;8.52;;;4.57;;
21777;SDS011;11050;52.222;20.916;2022-09-24T17:21:19;9.35;;;4.80;;
21777;SDS011;11050;52.222;20.916;2022-09-24T17:23:46;9.70;;;5.22;;
21777;SDS011;11050;52.222;20.916;2022-09-24T17:26:14;9.68;;;5.40;;
21777;SDS011;11050;52.222;20.916;2022-09-24T17:28:44;8.43;;;4.85;;
21777;SDS011;11050;52.222;20.916;2022-09-24T17:31:12;7.93;;;4.68;;
21777;SDS011;11050;52.222;20.916;2022-09-24T17:33:41;8.40;;;4.57;;
21777;SDS011;11050;52.222;20.916;2022-09-24T17:36:07;12.07;;;5.50;;
21777;SDS011;11050;52.222;20.916;2022-09-24T17:38:36;8.90;;;5.00;;